Terminal Aerodrome Forecast
Issued by NWS

Home | Current Version | Previous Version | Text Only | Print | Product List | Glossary On
Versions: 1 2 3 4 5 6 7 8 9 10 11 12 13 14 15 16 17
000
FTUS43 KBIS 041124
TAFMOT
TAF
KMOT 041124Z 0412/0512 VRB05KT P6SM SKC
     FM041500 09007KT P6SM SKC
     FM041800 12014KT P6SM SKC
     FM050600 12008KT P6SM SCT100 OVC250=

USA.gov is the U.S. government's official web portal to all federal, state and local government web resources and services.